Time;durP1;ratioP1;P1;durP2;ratioP2;P2;SDS_P1;SDS_P2;PMS_P1;PMS_P2;Temp;Humidity;BMP_temperature;BMP_pressure;BME280_temperature;BME280_humidity;BME280_pressure;Samples;Min_cycle;Max_cycle;Signal;HPM_P1;HPM_P2
2023/10/03 00:00:15;;;;;;;31.40;9.10;;;15.50;98.00;;;;;;5013037;28;21046;-88
2023/10/03 00:02:42;;;;;;;30.60;8.97;;;15.40;98.00;;;;;;5012903;28;20464;-88
2023/10/03 00:05:11;;;;;;;33.70;9.93;;;15.30;98.00;;;;;;5013138;28;20463;-88
2023/10/03 00:07:38;;;;;;;25.43;9.90;;;15.50;98.00;;;;;;5013001;28;20475;-88
2023/10/03 00:10:08;;;;;;;34.70;10.77;;;15.40;98.00;;;;;;5011956;28;20522;-88
2023/10/03 00:12:36;;;;;;;30.83;9.57;;;15.20;98.00;;;;;;5012540;28;20448;-87
2023/10/03 00:15:07;;;;;;;33.47;9.73;;;15.00;98.00;;;;;;5012788;28;20886;-88
2023/10/03 00:17:34;;;;;;;25.87;9.40;;;14.80;98.00;;;;;;5012666;28;20561;-88
2023/10/03 00:20:02;;;;;;;29.67;10.30;;;14.80;98.00;;;;;;5012918;28;20876;-88
2023/10/03 00:22:29;;;;;;;28.33;9.70;;;14.80;98.00;;;;;;5012481;28;20494;-88
2023/10/03 00:24:56;;;;;;;32.20;10.57;;;14.80;98.00;;;;;;5012730;28;20459;-88
2023/10/03 00:27:23;;;;;;;35.50;10.87;;;14.90;98.00;;;;;;5012700;28;20591;-88
2023/10/03 00:29:52;;;;;;;36.27;10.13;;;15.00;98.00;;;;;;5012852;28;21021;-88
2023/10/03 00:32:19;;;;;;;38.47;10.70;;;15.10;98.00;;;;;;5013448;28;20486;-89
2023/10/03 00:34:46;;;;;;;37.03;10.40;;;15.10;98.00;;;;;;5012635;28;20459;-88
2023/10/03 00:37:13;;;;;;;30.77;8.97;;;15.00;98.00;;;;;;5012342;28;20475;-88
2023/10/03 00:39:41;;;;;;;31.03;9.30;;;15.00;98.00;;;;;;5012172;28;20464;-88
2023/10/03 00:42:09;;;;;;;29.63;9.67;;;14.90;98.00;;;;;;5011895;28;20472;-88
2023/10/03 00:44:38;;;;;;;33.97;10.27;;;15.10;98.00;;;;;;5012391;28;20538;-88
2023/10/03 00:47:07;;;;;;;37.20;10.00;;;15.20;98.00;;;;;;5012224;28;20460;-88
2023/10/03 00:49:35;;;;;;;25.60;8.53;;;15.30;98.00;;;;;;5012301;28;20573;-88
2023/10/03 00:52:05;;;;;;;38.57;9.60;;;15.10;98.00;;;;;;5011861;28;20851;-87
2023/10/03 00:54:33;;;;;;;26.30;9.43;;;15.00;98.00;;;;;;5012452;28;20550;-88
2023/10/03 00:57:00;;;;;;;30.20;9.60;;;15.00;98.00;;;;;;5012308;28;20459;-88
2023/10/03 00:59:28;;;;;;;33.93;10.37;;;14.90;98.00;;;;;;5012225;28;20974;-88
2023/10/03 01:02:02;;;;;;;31.70;10.17;;;14.70;98.00;;;;;;5011723;28;20514;-88
2023/10/03 01:04:34;;;;;;;23.70;9.20;;;14.60;98.00;;;;;;5012438;28;20821;-88
2023/10/03 01:07:02;;;;;;;32.70;9.17;;;14.60;98.00;;;;;;5009306;28;20538;-88
2023/10/03 01:09:31;;;;;;;30.83;9.40;;;14.60;98.00;;;;;;5012149;28;20479;-88
2023/10/03 01:11:58;;;;;;;30.27;9.00;;;14.60;98.00;;;;;;5012020;28;20975;-88
2023/10/03 01:14:26;;;;;;;27.97;9.70;;;14.70;98.00;;;;;;5012548;28;20526;-88
2023/10/03 01:16:54;;;;;;;23.67;8.77;;;14.90;98.00;;;;;;5011957;28;20514;-87
2023/10/03 01:19:25;;;;;;;26.67;9.90;;;15.00;98.00;;;;;;5012356;28;20486;-88
2023/10/03 01:21:54;;;;;;;32.70;9.70;;;15.00;98.00;;;;;;5013230;28;20506;-87
2023/10/03 01:24:24;;;;;;;23.50;8.60;;;14.90;98.00;;;;;;5016187;28;20464;-88
2023/10/03 01:26:53;;;;;;;29.70;10.17;;;14.70;98.00;;;;;;5015863;28;20451;-87
2023/10/03 01:29:20;;;;;;;35.30;10.17;;;14.80;98.00;;;;;;5016008;28;20983;-87
2023/10/03 01:31:49;;;;;;;24.90;8.93;;;14.60;98.00;;;;;;5015815;28;20491;-87
2023/10/03 01:34:16;;;;;;;31.70;9.90;;;14.50;98.00;;;;;;5016224;28;20844;-87
2023/10/03 01:36:45;;;;;;;28.60;9.30;;;14.40;98.00;;;;;;5015726;28;20470;-88
2023/10/03 01:39:13;;;;;;;32.90;9.23;;;14.30;98.00;;;;;;5016258;28;21208;-87
2023/10/03 01:41:42;;;;;;;24.67;9.30;;;14.30;98.00;;;;;;5015140;28;20467;-88
2023/10/03 01:44:09;;;;;;;28.87;9.20;;;14.20;98.00;;;;;;5016007;28;20884;-88
2023/10/03 01:46:38;;;;;;;37.47;9.70;;;14.20;98.00;;;;;;5015557;28;20459;-87
2023/10/03 01:49:06;;;;;;;28.67;9.20;;;14.20;98.00;;;;;;5015756;28;20475;-88
2023/10/03 01:51:33;;;;;;;36.07;10.87;;;14.30;98.00;;;;;;5014972;28;20855;-89
2023/10/03 01:54:01;;;;;;;33.23;9.80;;;14.20;98.00;;;;;;5015989;28;20915;-88
2023/10/03 01:56:30;;;;;;;36.33;10.70;;;14.30;98.00;;;;;;5015465;28;20491;-88
2023/10/03 01:58:59;;;;;;;30.77;8.63;;;14.50;98.00;;;;;;5015525;28;20484;-87
2023/10/03 02:01:28;;;;;;;36.47;9.83;;;14.60;98.00;;;;;;5014934;28;20452;-88
2023/10/03 02:03:55;;;;;;;34.90;9.87;;;14.50;98.00;;;;;;5015427;28;20529;-88
2023/10/03 02:06:22;;;;;;;31.00;9.30;;;14.20;98.00;;;;;;5015311;28;20470;-87
2023/10/03 02:08:50;;;;;;;26.87;8.97;;;14.00;98.00;;;;;;5014970;28;20476;-89
2023/10/03 02:11:17;;;;;;;31.40;9.77;;;14.00;98.00;;;;;;5014526;28;20887;-87
2023/10/03 02:13:45;;;;;;;28.77;9.40;;;14.10;98.00;;;;;;5015137;28;20459;-87
2023/10/03 02:16:14;;;;;;;34.90;9.80;;;14.10;98.00;;;;;;5015175;28;20831;-88
2023/10/03 02:18:42;;;;;;;31.73;9.70;;;14.10;98.00;;;;;;5015049;28;21045;-87
2023/10/03 02:21:09;;;;;;;31.07;10.40;;;14.20;98.00;;;;;;5014832;28;20463;-87
2023/10/03 02:23:36;;;;;;;32.87;8.93;;;14.10;98.00;;;;;;5014486;28;20467;-87
2023/10/03 02:26:10;;;;;;;28.00;9.60;;;14.20;98.00;;;;;;5015088;28;20459;-88
2023/10/03 02:28:38;;;;;;;36.43;9.40;;;14.30;98.00;;;;;;5015064;28;20489;-87
2023/10/03 02:31:07;;;;;;;31.53;9.47;;;14.00;98.00;;;;;;5014616;28;20491;-88
2023/10/03 02:33:38;;;;;;;34.53;9.93;;;13.90;98.00;;;;;;5013287;28;20975;-88
2023/10/03 02:36:07;;;;;;;41.30;10.80;;;13.90;98.00;;;;;;5014782;28;20886;-87
2023/10/03 02:38:35;;;;;;;29.97;8.97;;;13.90;98.00;;;;;;5014772;28;20479;-88
2023/10/03 02:41:06;;;;;;;29.50;9.73;;;13.90;98.00;;;;;;5014960;28;20463;-88
2023/10/03 02:43:35;;;;;;;36.33;10.13;;;13.90;98.00;;;;;;5014206;28;20463;-87
2023/10/03 02:46:04;;;;;;;31.47;8.97;;;13.90;98.00;;;;;;5014640;28;20456;-87
2023/10/03 02:48:32;;;;;;;27.50;8.90;;;14.00;98.00;;;;;;5014488;28;20500;-87
2023/10/03 02:51:01;;;;;;;40.23;9.47;;;14.10;98.00;;;;;;5014337;28;20484;-88
2023/10/03 02:53:29;;;;;;;25.60;8.40;;;14.20;98.00;;;;;;5014202;28;20670;-88
2023/10/03 02:55:56;;;;;;;32.27;9.40;;;14.00;98.00;;;;;;5014778;28;20456;-87
2023/10/03 02:58:23;;;;;;;25.17;8.70;;;13.80;98.00;;;;;;5014708;28;20486;-89
2023/10/03 03:00:53;;;;;;;29.97;9.40;;;13.80;98.00;;;;;;5014287;28;20795;-87
2023/10/03 03:03:21;;;;;;;30.27;9.90;;;13.90;98.00;;;;;;5014347;28;20522;-87
2023/10/03 03:05:49;;;;;;;32.23;9.10;;;13.90;98.00;;;;;;5014407;28;20467;-87
2023/10/03 03:08:25;;;;;;;28.80;9.30;;;13.90;98.00;;;;;;5014534;28;20486;-87
2023/10/03 03:10:55;;;;;;;30.57;9.70;;;14.00;98.00;;;;;;5014283;28;20506;-87
2023/10/03 03:13:23;;;;;;;32.03;9.40;;;14.00;98.00;;;;;;5014051;28;20459;-88
2023/10/03 03:15:59;;;;;;;27.20;9.10;;;14.00;98.00;;;;;;5014382;28;21009;-87
2023/10/03 03:18:27;;;;;;;31.17;8.80;;;14.10;98.00;;;;;;5014499;28;20487;-87
2023/10/03 03:20:57;;;;;;;27.33;8.83;;;14.00;98.00;;;;;;5015652;28;20455;-88
2023/10/03 03:23:30;;;;;;;33.30;9.50;;;13.90;98.00;;;;;;5013888;28;20460;-88
2023/10/03 03:26:12;;;;;;;30.50;9.70;;;13.80;98.00;;;;;;5013508;28;20487;-87
2023/10/03 03:28:40;;;;;;;29.57;9.10;;;13.80;98.00;;;;;;5013690;28;20562;-88
2023/10/03 03:31:17;;;;;;;36.80;9.63;;;13.90;98.00;;;;;;5013541;28;21167;-87
2023/10/03 03:33:47;;;;;;;27.17;8.10;;;13.90;98.00;;;;;;5013534;28;21025;-87
2023/10/03 03:36:18;;;;;;;28.63;9.63;;;13.90;98.00;;;;;;5013624;28;20471;-87
2023/10/03 03:38:48;;;;;;;25.13;8.20;;;13.70;98.00;;;;;;5013596;28;20476;-87
2023/10/03 03:41:16;;;;;;;31.80;9.20;;;13.70;98.00;;;;;;5013262;28;20471;-88
2023/10/03 03:43:43;;;;;;;24.60;8.23;;;13.60;98.00;;;;;;5013777;28;21020;-88
2023/10/03 03:46:12;;;;;;;24.20;8.70;;;13.70;98.00;;;;;;5013509;28;20846;-87
2023/10/03 03:48:40;;;;;;;36.20;8.90;;;13.80;98.00;;;;;;5013176;28;20534;-87
2023/10/03 03:51:09;;;;;;;33.60;9.70;;;13.90;98.00;;;;;;5013254;28;20809;-87
2023/10/03 03:53:36;;;;;;;26.77;8.90;;;13.90;98.00;;;;;;5013033;28;21022;-88
2023/10/03 03:56:07;;;;;;;32.30;9.40;;;14.00;98.00;;;;;;5013285;28;20455;-88
2023/10/03 03:58:35;;;;;;;25.20;8.53;;;13.90;98.00;;;;;;5013145;28;20476;-87
2023/10/03 04:01:06;;;;;;;27.30;8.53;;;13.90;98.00;;;;;;5012787;28;20551;-88
2023/10/03 04:03:35;;;;;;;31.20;9.57;;;13.70;98.00;;;;;;5012771;28;20463;-87
2023/10/03 04:06:02;;;;;;;25.90;7.97;;;13.60;98.00;;;;;;5012922;28;20463;-88
2023/10/03 04:08:29;;;;;;;22.30;7.87;;;13.60;98.00;;;;;;5012884;28;20480;-87
2023/10/03 04:10:56;;;;;;;22.67;8.90;;;13.60;98.00;;;;;;5013001;28;20487;-88
2023/10/03 04:13:26;;;;;;;31.53;9.40;;;13.80;98.00;;;;;;5012387;28;20459;-88
2023/10/03 04:15:54;;;;;;;30.83;9.53;;;13.60;98.00;;;;;;5013073;28;20463;-87
2023/10/03 04:18:21;;;;;;;26.03;9.13;;;13.50;98.00;;;;;;5012801;28;20487;-88
2023/10/03 04:20:48;;;;;;;24.30;8.27;;;13.60;98.00;;;;;;5012823;28;20526;-88
2023/10/03 04:23:15;;;;;;;35.60;9.10;;;13.60;98.00;;;;;;5012413;28;20460;-88
2023/10/03 04:25:42;;;;;;;31.00;8.97;;;13.60;98.00;;;;;;5012948;28;21013;-88
2023/10/03 04:28:11;;;;;;;29.60;9.10;;;13.70;98.00;;;;;;5012256;28;20487;-87
2023/10/03 04:30:41;;;;;;;31.07;8.97;;;13.60;98.00;;;;;;5012338;28;20486;-88
2023/10/03 04:33:08;;;;;;;26.17;8.23;;;13.60;98.00;;;;;;5012213;28;20550;-87
2023/10/03 04:35:35;;;;;;;30.10;9.23;;;13.70;98.00;;;;;;5012935;28;20561;-87
2023/10/03 04:38:04;;;;;;;32.23;7.97;;;13.80;98.00;;;;;;5012376;28;20522;-88
2023/10/03 04:40:34;;;;;;;24.60;8.63;;;13.70;98.00;;;;;;5012693;28;20963;-88
2023/10/03 04:43:10;;;;;;;32.03;9.60;;;13.60;98.00;;;;;;5012074;28;20543;-87
2023/10/03 04:45:39;;;;;;;27.17;8.93;;;13.60;98.00;;;;;;5012545;28;20525;-87
2023/10/03 04:48:07;;;;;;;25.40;8.30;;;13.60;98.00;;;;;;5012710;28;20483;-87
2023/10/03 04:50:36;;;;;;;21.80;8.33;;;13.60;98.00;;;;;;5012482;28;20539;-87
2023/10/03 04:53:05;;;;;;;37.20;8.77;;;13.60;98.00;;;;;;5012102;28;20467;-87
2023/10/03 04:55:33;;;;;;;34.00;8.60;;;13.60;98.00;;;;;;5012593;28;20475;-87
2023/10/03 04:58:00;;;;;;;27.97;8.57;;;13.60;98.00;;;;;;5011979;28;20983;-87
2023/10/03 05:00:27;;;;;;;24.97;8.50;;;13.60;98.00;;;;;;5012141;28;20460;-87
2023/10/03 05:02:56;;;;;;;35.63;9.57;;;13.60;98.00;;;;;;5011370;28;20467;-87
2023/10/03 05:05:24;;;;;;;23.80;8.40;;;13.40;98.00;;;;;;5012160;28;20460;-88
2023/10/03 05:07:52;;;;;;;26.90;7.80;;;13.40;98.00;;;;;;5011723;28;20537;-89
2023/10/03 05:10:20;;;;;;;24.70;7.50;;;13.40;98.00;;;;;;5012350;28;20460;-87
2023/10/03 05:12:47;;;;;;;30.63;9.10;;;13.40;98.00;;;;;;5011382;28;20467;-87
2023/10/03 05:15:16;;;;;;;21.50;8.40;;;13.40;98.00;;;;;;5012038;28;20464;-87
2023/10/03 05:17:44;;;;;;;25.27;8.97;;;13.60;98.00;;;;;;5011676;28;20483;-87
2023/10/03 05:20:14;;;;;;;29.97;9.17;;;13.70;98.00;;;;;;5012202;28;20510;-87
2023/10/03 05:22:41;;;;;;;29.27;8.90;;;13.70;98.00;;;;;;5011682;28;20456;-87
2023/10/03 05:25:11;;;;;;;30.07;9.00;;;13.60;98.00;;;;;;5012189;28;20554;-87
2023/10/03 05:27:39;;;;;;;28.90;9.57;;;13.50;98.00;;;;;;5011578;28;20476;-87
2023/10/03 05:30:08;;;;;;;35.20;9.47;;;13.50;98.00;;;;;;5011939;28;20459;-87
2023/10/03 05:32:35;;;;;;;27.57;8.67;;;13.50;98.00;;;;;;5011357;28;20498;-87
2023/10/03 05:35:04;;;;;;;26.90;8.70;;;13.60;98.00;;;;;;5011984;28;20455;-88
2023/10/03 05:37:34;;;;;;;23.27;8.33;;;13.50;98.00;;;;;;5011683;28;20483;-87
2023/10/03 05:40:11;;;;;;;22.63;8.40;;;13.40;98.00;;;;;;5011560;28;20467;-87
2023/10/03 05:42:40;;;;;;;23.77;8.47;;;13.40;98.00;;;;;;5011001;28;20520;-87
2023/10/03 05:45:10;;;;;;;26.27;8.33;;;13.30;98.00;;;;;;5012152;28;20452;-87
2023/10/03 05:47:37;;;;;;;29.07;8.50;;;13.40;98.00;;;;;;5011810;28;20484;-86
2023/10/03 05:50:05;;;;;;;28.43;8.33;;;13.40;98.00;;;;;;5011523;28;20522;-89
2023/10/03 05:52:33;;;;;;;31.10;8.47;;;13.30;98.00;;;;;;5011096;28;20496;-87
2023/10/03 05:55:00;;;;;;;21.57;7.70;;;13.40;98.00;;;;;;5012202;28;20970;-89
2023/10/03 05:57:28;;;;;;;25.20;8.20;;;13.40;98.00;;;;;;5013676;28;20489;-88
2023/10/03 05:59:55;;;;;;;27.80;8.97;;;13.50;98.00;;;;;;5011046;28;20941;-88
2023/10/03 06:02:22;;;;;;;25.23;8.60;;;13.40;98.00;;;;;;5010429;28;20456;-88
2023/10/03 06:04:50;;;;;;;26.27;8.90;;;13.50;98.00;;;;;;5011340;28;20463;-88
2023/10/03 06:07:17;;;;;;;30.37;8.50;;;13.60;98.00;;;;;;5011707;28;20978;-87
2023/10/03 06:09:46;;;;;;;29.27;9.60;;;13.80;98.00;;;;;;5014883;28;20469;-88
2023/10/03 06:12:13;;;;;;;30.50;9.00;;;13.80;98.00;;;;;;5014025;28;20482;-88
2023/10/03 06:14:40;;;;;;;29.70;8.50;;;13.70;98.00;;;;;;5014864;28;20467;-88
2023/10/03 06:17:08;;;;;;;31.07;8.67;;;13.80;98.00;;;;;;5014669;28;21139;-88
2023/10/03 06:19:37;;;;;;;31.30;9.20;;;14.00;98.00;;;;;;5014607;28;20550;-88
2023/10/03 06:22:05;;;;;;;20.53;7.00;;;14.00;98.00;;;;;;5014362;28;20459;-88
2023/10/03 06:24:33;;;;;;;25.37;9.00;;;13.90;98.00;;;;;;5014917;28;20463;-88
2023/10/03 06:27:03;;;;;;;19.30;8.40;;;13.90;98.00;;;;;;5014322;28;20471;-88
2023/10/03 06:29:30;;;;;;;24.57;8.13;;;13.90;98.00;;;;;;5014752;28;20567;-88
2023/10/03 06:31:57;;;;;;;33.23;8.23;;;13.90;98.00;;;;;;5013970;28;20502;-88
2023/10/03 06:34:25;;;;;;;26.27;8.73;;;13.90;98.00;;;;;;5014809;28;20812;-88
2023/10/03 06:36:52;;;;;;;21.60;6.90;;;13.90;98.00;;;;;;5014430;28;20467;-88
2023/10/03 06:39:19;;;;;;;27.00;8.83;;;14.10;98.00;;;;;;5014614;28;20451;-88
2023/10/03 06:41:47;;;;;;;23.50;7.70;;;14.20;98.00;;;;;;5013418;28;20554;-88
2023/10/03 06:44:15;;;;;;;35.80;9.90;;;14.30;98.00;;;;;;5014422;28;20482;-88
2023/10/03 06:46:43;;;;;;;26.47;8.13;;;14.40;98.00;;;;;;5014214;28;20456;-88
2023/10/03 06:49:11;;;;;;;24.70;7.90;;;14.40;98.00;;;;;;5014031;28;20851;-88
2023/10/03 06:51:38;;;;;;;27.63;8.13;;;14.60;98.00;;;;;;5013323;28;21046;-88
2023/10/03 06:54:05;;;;;;;27.20;8.40;;;14.70;98.00;;;;;;5014216;28;20459;-87
2023/10/03 06:56:34;;;;;;;23.43;7.47;;;14.70;98.00;;;;;;5013706;28;20466;-88
2023/10/03 06:59:01;;;;;;;19.53;8.07;;;14.80;98.00;;;;;;5013819;28;21056;-88
2023/10/03 07:01:29;;;;;;;21.87;8.03;;;14.80;98.00;;;;;;5013199;28;20471;-88
2023/10/03 07:03:58;;;;;;;27.53;9.00;;;14.90;98.00;;;;;;5014236;28;20455;-88
2023/10/03 07:06:25;;;;;;;23.87;7.60;;;15.10;98.00;;;;;;5013839;28;20970;-88
2023/10/03 07:08:52;;;;;;;22.83;8.03;;;15.00;98.00;;;;;;5013332;28;20472;-88
2023/10/03 07:11:20;;;;;;;23.90;8.00;;;15.20;98.00;;;;;;5012865;28;20480;-88
2023/10/03 07:13:49;;;;;;;24.03;8.20;;;15.30;98.00;;;;;;5013757;28;20515;-88
2023/10/03 07:16:17;;;;;;;24.53;8.00;;;15.40;98.00;;;;;;5013575;28;20461;-88
2023/10/03 07:18:45;;;;;;;21.60;7.30;;;15.50;98.00;;;;;;5013031;28;20556;-88
2023/10/03 07:21:15;;;;;;;18.60;7.23;;;15.60;98.00;;;;;;5013619;28;20969;-88
2023/10/03 07:23:42;;;;;;;18.03;7.23;;;15.70;98.00;;;;;;5013332;28;20460;-88
2023/10/03 07:26:09;;;;;;;14.57;6.20;;;15.80;98.00;;;;;;5013712;28;20470;-88
2023/10/03 07:28:38;;;;;;;20.70;6.77;;;16.10;98.00;;;;;;5013252;28;20503;-88
2023/10/03 07:31:09;;;;;;;18.50;6.53;;;16.30;98.00;;;;;;5013491;28;20947;-89
2023/10/03 07:33:36;;;;;;;16.40;5.70;;;16.60;98.00;;;;;;5013010;28;20463;-90
2023/10/03 07:36:08;;;;;;;15.30;6.20;;;16.90;98.00;;;;;;5013174;28;20830;-90
2023/10/03 07:38:35;;;;;;;11.90;5.63;;;17.20;98.00;;;;;;5012940;28;20530;-89
2023/10/03 07:41:09;;;;;;;12.30;5.47;;;17.60;98.00;;;;;;5013370;28;20467;-89
2023/10/03 07:43:36;;;;;;;12.67;5.60;;;17.90;98.00;;;;;;5012655;28;20463;-89
2023/10/03 07:46:03;;;;;;;12.47;5.43;;;18.20;98.00;;;;;;5013589;28;20456;-90
2023/10/03 07:48:30;;;;;;;10.40;4.87;;;18.60;98.00;;;;;;5013246;28;20471;-89
2023/10/03 07:50:57;;;;;;;10.63;4.97;;;19.10;98.00;;;;;;5013623;28;20459;-89
2023/10/03 07:53:29;;;;;;;11.73;4.57;;;19.50;98.00;;;;;;5012738;28;20490;-89
2023/10/03 07:55:57;;;;;;;18.03;5.23;;;19.90;98.00;;;;;;5013724;28;20665;-89
2023/10/03 07:58:26;;;;;;;13.10;4.40;;;20.50;98.00;;;;;;5013236;28;21089;-89
2023/10/03 08:00:53;;;;;;;10.80;4.20;;;20.80;98.00;;;;;;5013669;28;20455;-90
2023/10/03 08:03:20;;;;;;;10.17;4.40;;;21.10;98.00;;;;;;5012940;28;20460;-89
2023/10/03 08:05:47;;;;;;;9.73;4.90;;;21.30;98.00;;;;;;5013592;28;20463;-89
2023/10/03 08:08:14;;;;;;;11.47;4.50;;;21.60;98.00;;;;;;5013734;28;20475;-88
2023/10/03 08:10:48;;;;;;;10.80;5.13;;;21.80;98.00;;;;;;5014154;28;20448;-90
2023/10/03 08:13:17;;;;;;;10.30;4.80;;;22.00;98.00;;;;;;5013590;28;20483;-90
2023/10/03 08:15:44;;;;;;;10.00;4.67;;;22.20;98.00;;;;;;5014055;28;20463;-90
2023/10/03 08:18:17;;;;;;;9.83;4.30;;;22.40;98.00;;;;;;5013402;28;20479;-91
2023/10/03 08:20:45;;;;;;;9.43;4.67;;;22.60;98.00;;;;;;5013882;28;20487;-90
2023/10/03 08:23:13;;;;;;;9.17;4.53;;;22.70;98.00;;;;;;5014177;28;20463;-90
2023/10/03 08:25:42;;;;;;;12.47;4.27;;;22.90;98.00;;;;;;5014109;28;20455;-90
2023/10/03 08:28:11;;;;;;;7.90;4.60;;;23.00;98.00;;;;;;5013371;28;20562;-90
2023/10/03 08:30:38;;;;;;;8.23;4.30;;;23.10;98.00;;;;;;5012679;28;20459;-90
2023/10/03 08:33:06;;;;;;;11.50;5.20;;;23.30;98.00;;;;;;5013031;28;20492;-90
2023/10/03 08:35:37;;;;;;;12.80;5.17;;;23.50;98.00;;;;;;5013742;28;20483;-90
2023/10/03 08:38:05;;;;;;;10.60;4.90;;;23.60;98.00;;;;;;5013564;28;20558;-90
2023/10/03 08:40:38;;;;;;;17.77;4.73;;;23.80;97.40;;;;;;5013352;28;20895;-91
2023/10/03 08:43:09;;;;;;;11.10;4.90;;;23.90;96.50;;;;;;5013300;28;20487;-90
2023/10/03 08:45:41;;;;;;;8.77;4.67;;;24.10;96.30;;;;;;5013933;28;20455;-91
2023/10/03 08:48:08;;;;;;;9.07;4.97;;;24.30;95.70;;;;;;5013440;28;20491;-91
2023/10/03 08:50:46;;;;;;;8.80;4.40;;;24.50;95.30;;;;;;5013297;28;20463;-91
2023/10/03 08:53:17;;;;;;;9.93;4.83;;;24.70;95.00;;;;;;5012789;28;20486;-90
2023/10/03 08:55:46;;;;;;;9.07;5.27;;;24.90;94.90;;;;;;5013604;28;20460;-92
2023/10/03 08:58:18;;;;;;;10.37;4.60;;;25.10;95.40;;;;;;5013398;28;21062;-91
2023/10/03 09:00:47;;;;;;;9.03;4.40;;;25.20;94.40;;;;;;5013139;28;20463;-91
2023/10/03 09:03:15;;;;;;;11.80;4.80;;;25.30;92.80;;;;;;5013288;28;20452;-91
2023/10/03 09:05:43;;;;;;;7.43;4.33;;;25.40;92.50;;;;;;5013476;28;20861;-91
2023/10/03 09:08:11;;;;;;;9.47;4.73;;;25.50;92.80;;;;;;5013649;28;20933;-90
2023/10/03 09:10:51;;;;;;;7.60;4.47;;;25.60;92.40;;;;;;5013215;28;20833;-91
2023/10/03 09:13:27;;;;;;;9.20;4.50;;;25.70;92.00;;;;;;5012691;28;20479;-90
2023/10/03 09:16:06;;;;;;;10.47;4.57;;;25.70;91.90;;;;;;5013909;28;20498;-93
2023/10/03 09:18:40;;;;;;;9.97;5.00;;;25.80;92.00;;;;;;5013023;28;20490;-91
2023/10/03 09:21:07;;;;;;;13.80;5.23;;;26.00;91.70;;;;;;5013172;28;20970;-91
2023/10/03 09:23:39;;;;;;;10.03;4.33;;;26.20;91.70;;;;;;5012999;28;20458;-91
2023/10/03 09:26:08;;;;;;;9.13;4.60;;;26.30;90.80;;;;;;5013747;28;20471;-91
2023/10/03 09:28:36;;;;;;;8.83;5.10;;;26.50;92.40;;;;;;5013486;28;20480;-91
2023/10/03 09:31:08;;;;;;;8.03;4.27;;;26.70;91.30;;;;;;5013177;28;20447;-90
2023/10/03 09:33:39;;;;;;;10.93;4.90;;;26.70;90.60;;;;;;5013007;28;20559;-91
2023/10/03 09:36:07;;;;;;;10.60;5.27;;;26.70;91.10;;;;;;5013496;28;20751;-91
2023/10/03 09:38:45;;;;;;;10.00;4.80;;;26.80;91.00;;;;;;5013149;28;20483;-91
2023/10/03 09:41:18;;;;;;;9.77;4.83;;;26.80;90.50;;;;;;5013404;28;20467;-91
2023/10/03 09:43:53;;;;;;;10.83;5.40;;;26.80;91.80;;;;;;5016944;28;20491;-91
2023/10/03 09:46:25;;;;;;;9.83;5.37;;;27.00;91.50;;;;;;5017848;28;20459;-92
2023/10/03 09:48:54;;;;;;;10.07;4.97;;;27.20;90.50;;;;;;5017365;28;20718;-92
2023/10/03 09:51:36;;;;;;;10.37;5.13;;;27.10;90.90;;;;;;5016490;28;20467;-91
2023/10/03 09:54:09;;;;;;;12.43;5.20;;;27.20;90.50;;;;;;5016997;28;20510;-92
2023/10/03 09:56:40;;;;;;;10.20;5.07;;;27.40;91.70;;;;;;5016739;28;20467;-91
2023/10/03 09:59:09;;;;;;;11.73;5.37;;;27.60;90.40;;;;;;5016708;28;20534;-92
2023/10/03 10:01:39;;;;;;;10.47;5.00;;;27.80;90.10;;;;;;5016694;28;20451;-92
2023/10/03 10:04:08;;;;;;;8.77;4.80;;;28.00;90.00;;;;;;5017222;28;20518;-92
2023/10/03 10:06:47;;;;;;;19.10;5.20;;;28.00;88.80;;;;;;5016465;28;20463;-92
2023/10/03 10:09:27;;;;;;;10.20;5.23;;;28.00;89.40;;;;;;5017287;28;20910;-92
2023/10/03 10:12:18;;;;;;;9.97;4.63;;;28.10;89.50;;;;;;5015895;28;20473;-91
2023/10/03 10:17:51;;;;;;;8.87;4.90;;;28.70;88.80;;;;;;5013886;28;21012;-92
2023/10/03 10:20:27;;;;;;;9.67;5.03;;;28.90;88.30;;;;;;5016700;28;20478;-91
2023/10/03 10:23:20;;;;;;;12.63;5.60;;;29.10;88.40;;;;;;5016768;28;20472;-92
2023/10/03 10:25:51;;;;;;;8.87;4.77;;;29.40;87.60;;;;;;5016824;28;20455;-92
2023/10/03 10:28:27;;;;;;;10.30;5.03;;;29.70;86.70;;;;;;5008980;28;20478;-92
2023/10/03 10:31:21;;;;;;;10.90;5.10;;;29.70;85.20;;;;;;5016406;28;20459;-92
2023/10/03 10:33:49;;;;;;;7.10;4.63;;;29.50;85.80;;;;;;5007676;28;20479;-92
2023/10/03 10:36:18;;;;;;;8.90;4.97;;;29.20;85.80;;;;;;5016852;28;20467;-92
2023/10/03 10:38:55;;;;;;;10.50;5.37;;;29.20;87.50;;;;;;5016099;28;20499;-91
2023/10/03 10:41:26;;;;;;;9.20;4.80;;;29.00;87.80;;;;;;5016540;28;20843;-92
2023/10/03 10:44:13;;;;;;;9.00;5.10;;;28.80;88.90;;;;;;5016478;28;20495;-91
2023/10/03 10:46:44;;;;;;;10.10;4.90;;;28.60;88.40;;;;;;5017071;28;20465;-89
2023/10/03 10:49:52;;;;;;;8.93;4.50;;;28.50;89.10;;;;;;5016039;28;20530;-89
2023/10/03 10:52:19;;;;;;;8.50;5.07;;;28.30;89.50;;;;;;4994091;28;20780;-90
2023/10/03 10:54:46;;;;;;;11.10;4.47;;;28.40;90.90;;;;;;5015330;28;20459;-89
2023/10/03 10:57:16;;;;;;;8.60;4.73;;;28.70;89.80;;;;;;5015685;28;20456;-91
2023/10/03 10:59:43;;;;;;;10.73;5.20;;;28.90;89.00;;;;;;5016154;28;20822;-90
2023/10/03 11:02:22;;;;;;;9.40;5.10;;;29.10;88.50;;;;;;5015189;28;20462;-89
2023/10/03 11:04:56;;;;;;;10.70;5.20;;;29.30;87.90;;;;;;5016061;28;20459;-89
2023/10/03 11:07:23;;;;;;;7.27;4.80;;;29.30;87.90;;;;;;5015485;28;20475;-90
2023/10/03 11:09:52;;;;;;;8.20;4.80;;;29.40;87.60;;;;;;5015394;28;20459;-90
2023/10/03 11:12:26;;;;;;;14.83;5.00;;;29.40;88.10;;;;;;5015566;28;20547;-90
2023/10/03 11:14:54;;;;;;;9.90;4.80;;;29.60;87.60;;;;;;5015619;28;20460;-90
2023/10/03 11:17:23;;;;;;;10.23;5.30;;;29.80;87.20;;;;;;5015574;28;20485;-89
2023/10/03 11:19:51;;;;;;;7.83;4.83;;;29.80;87.70;;;;;;5015445;28;20460;-89
2023/10/03 11:22:19;;;;;;;6.70;4.70;;;29.80;87.70;;;;;;5015886;28;20471;-89
2023/10/03 11:24:46;;;;;;;9.70;5.17;;;29.80;87.00;;;;;;5015704;28;20470;-90
2023/10/03 11:27:24;;;;;;;9.83;5.03;;;30.10;87.10;;;;;;5015581;28;20463;-90
2023/10/03 11:29:51;;;;;;;8.20;4.87;;;30.30;87.50;;;;;;5015783;28;20948;-89
2023/10/03 11:32:24;;;;;;;7.90;4.83;;;30.20;87.30;;;;;;5015688;28;20506;-90
2023/10/03 11:34:54;;;;;;;9.27;5.30;;;30.00;85.60;;;;;;5015971;28;20464;-90
2023/10/03 11:37:36;;;;;;;7.10;4.60;;;29.90;85.80;;;;;;5017085;28;20514;-90
2023/10/03 11:40:13;;;;;;;15.47;5.80;;;29.80;87.00;;;;;;5016155;28;20465;-90
2023/10/03 11:42:51;;;;;;;8.00;4.57;;;29.70;87.90;;;;;;5015298;28;20558;-89
2023/10/03 11:45:19;;;;;;;9.07;4.90;;;29.40;87.80;;;;;;5007566;28;20465;-90
2023/10/03 11:48:06;;;;;;;6.67;4.57;;;29.30;88.30;;;;;;5015162;28;20483;-89
2023/10/03 11:50:36;;;;;;;8.33;5.03;;;29.10;87.60;;;;;;5015474;28;20514;-91
2023/10/03 11:53:04;;;;;;;16.80;5.77;;;29.00;88.80;;;;;;5014755;28;20483;-91
2023/10/03 11:55:33;;;;;;;10.50;5.17;;;28.90;89.30;;;;;;5015104;28;20462;-90
2023/10/03 11:58:00;;;;;;;11.50;5.40;;;28.80;88.40;;;;;;5015152;28;21038;-90
2023/10/03 12:00:28;;;;;;;9.53;5.13;;;28.70;88.40;;;;;;5014754;28;20510;-90
2023/10/03 12:02:55;;;;;;;9.30;5.43;;;28.70;88.70;;;;;;5015027;28;20964;-89
2023/10/03 12:05:26;;;;;;;9.47;5.00;;;28.80;88.60;;;;;;5015462;28;20454;-90
2023/10/03 12:07:56;;;;;;;8.77;4.83;;;29.10;88.90;;;;;;5015237;28;20475;-90
2023/10/03 12:10:26;;;;;;;9.73;5.37;;;29.70;87.90;;;;;;5014745;28;20854;-89
2023/10/03 12:12:53;;;;;;;7.40;4.73;;;29.90;86.50;;;;;;5014558;28;20480;-89
2023/10/03 12:15:22;;;;;;;8.53;5.20;;;30.10;88.10;;;;;;5015492;28;20841;-89
2023/10/03 12:17:49;;;;;;;7.70;4.53;;;30.60;86.90;;;;;;5014695;28;20994;-89
2023/10/03 12:20:18;;;;;;;9.50;5.50;;;30.80;86.90;;;;;;5014618;28;20471;-89
2023/10/03 12:22:48;;;;;;;11.20;5.70;;;30.30;86.00;;;;;;5014296;28;20460;-89
2023/10/03 12:25:17;;;;;;;13.20;4.90;;;30.10;86.90;;;;;;5014336;28;20462;-90
2023/10/03 12:27:45;;;;;;;8.60;5.40;;;30.00;87.20;;;;;;5013972;28;21038;-90
2023/10/03 12:30:15;;;;;;;8.47;5.10;;;29.70;88.00;;;;;;5014385;28;20839;-90
2023/10/03 12:32:46;;;;;;;11.60;5.47;;;29.70;88.20;;;;;;5014345;28;20982;-89
2023/10/03 12:35:14;;;;;;;8.17;4.80;;;29.60;88.70;;;;;;5014841;28;20463;-89
2023/10/03 12:37:45;;;;;;;9.43;4.90;;;29.40;89.00;;;;;;5014218;28;20479;-89
2023/10/03 12:40:17;;;;;;;9.23;5.53;;;29.40;88.40;;;;;;5014225;28;20472;-89
2023/10/03 12:42:47;;;;;;;9.43;5.63;;;29.40;88.60;;;;;;5014230;28;20470;-89
2023/10/03 12:45:16;;;;;;;9.80;5.30;;;29.70;87.90;;;;;;5014574;28;20543;-89
2023/10/03 12:47:47;;;;;;;10.00;5.57;;;29.70;88.00;;;;;;5014632;28;20487;-89
2023/10/03 12:50:15;;;;;;;10.20;5.60;;;29.40;88.00;;;;;;5014576;28;20463;-89
2023/10/03 12:52:42;;;;;;;11.13;5.70;;;29.30;88.60;;;;;;5014033;28;20463;-89